createdAt,value
2022-12-24T00:01:06.542Z,23.43
2022-12-24T00:03:34.291Z,19.00
2022-12-24T00:06:08.526Z,15.80
2022-12-24T00:08:35.947Z,15.37
2022-12-24T00:11:03.005Z,26.53
2022-12-24T00:13:29.978Z,15.93
2022-12-24T00:15:59.125Z,22.63
2022-12-24T00:18:26.079Z,18.13
2022-12-24T00:20:53.153Z,17.93
2022-12-24T00:23:20.055Z,19.70
2022-12-24T00:25:46.968Z,22.60
2022-12-24T00:28:14.905Z,15.20
2022-12-24T00:30:43.008Z,19.13
2022-12-24T00:33:10.114Z,17.43
2022-12-24T00:35:37.936Z,15.70
2022-12-24T00:38:05.363Z,19.77
2022-12-24T00:40:32.558Z,12.73
2022-12-24T00:42:59.427Z,18.53
2022-12-24T00:45:28.032Z,24.70
2022-12-24T00:47:55.042Z,16.97
2022-12-24T00:50:21.844Z,15.07
2022-12-24T00:52:48.773Z,18.53
2022-12-24T00:55:15.569Z,15.63
2022-12-24T00:57:42.428Z,12.53
2022-12-24T01:00:09.891Z,19.93
2022-12-24T01:02:36.914Z,19.87
2022-12-24T01:05:12.833Z,21.30
2022-12-24T01:07:44.653Z,21.90
2022-12-24T01:10:14.043Z,23.90
2022-12-24T01:12:42.287Z,17.03
2022-12-24T01:15:10.128Z,19.17
2022-12-24T01:17:37.277Z,14.27
2022-12-24T01:20:06.680Z,20.67
2022-12-24T01:22:33.628Z,19.03
2022-12-24T01:25:00.407Z,18.83
2022-12-24T01:27:27.258Z,20.73
2022-12-24T01:29:54.140Z,20.10
2022-12-24T01:32:21.528Z,17.90
2022-12-24T01:34:48.358Z,23.67
2022-12-24T01:37:15.223Z,22.37
2022-12-24T01:39:42.025Z,17.83
2022-12-24T01:42:39.955Z,29.17
2022-12-24T01:45:31.513Z,18.10
2022-12-24T01:47:58.331Z,17.80
2022-12-24T01:50:25.180Z,21.17
2022-12-24T01:52:51.930Z,22.07
2022-12-24T01:55:19.655Z,18.40
2022-12-24T01:57:52.118Z,19.07
2022-12-24T02:00:19.467Z,22.50
2022-12-24T02:02:49.617Z,17.57
2022-12-24T02:05:23.657Z,21.03
2022-12-24T02:07:50.999Z,24.40
2022-12-24T02:10:18.438Z,27.37
2022-12-24T02:12:46.089Z,18.30
2022-12-24T02:15:15.030Z,22.67
2022-12-24T02:18:06.828Z,15.63
2022-12-24T02:21:10.540Z,21.77
2022-12-24T02:24:00.585Z,16.53
2022-12-24T02:27:01.735Z,20.87
2022-12-24T02:29:28.669Z,19.57
2022-12-24T02:32:04.455Z,25.53
2022-12-24T02:38:27.507Z,23.27
2022-12-24T02:41:20.492Z,21.83
2022-12-24T02:43:48.811Z,17.53
2022-12-24T02:46:23.669Z,16.27
2022-12-24T02:48:51.163Z,16.30
2022-12-24T02:51:23.431Z,18.63
2022-12-24T02:53:50.363Z,18.67
2022-12-24T02:56:54.128Z,19.20
2022-12-24T02:59:34.820Z,16.40
2022-12-24T03:02:29.422Z,15.70
2022-12-24T03:05:02.439Z,20.97
2022-12-24T03:07:36.596Z,19.83
2022-12-24T03:10:26.372Z,17.57
2022-12-24T03:12:57.711Z,17.23
2022-12-24T03:15:29.731Z,14.40
2022-12-24T03:18:00.449Z,19.73
2022-12-24T03:20:40.007Z,18.17
2022-12-24T03:23:07.403Z,15.87
2022-12-24T03:25:38.586Z,26.20
2022-12-24T03:28:08.378Z,18.87
2022-12-24T03:30:35.346Z,17.00
2022-12-24T03:33:02.146Z,16.90
2022-12-24T03:35:28.953Z,13.50
2022-12-24T03:37:56.669Z,14.93
2022-12-24T03:40:23.503Z,24.33
2022-12-24T03:42:50.305Z,20.63
2022-12-24T03:45:17.181Z,19.43
2022-12-24T03:47:43.913Z,16.87
2022-12-24T03:50:11.123Z,14.87
2022-12-24T03:52:37.820Z,13.63
2022-12-24T03:55:05.044Z,14.27
2022-12-24T03:57:31.856Z,28.53
2022-12-24T03:59:58.589Z,21.77
2022-12-24T04:02:25.601Z,22.63
2022-12-24T04:04:52.390Z,19.07
2022-12-24T04:07:19.116Z,16.83
2022-12-24T04:09:45.838Z,15.43
2022-12-24T04:12:12.551Z,20.03
2022-12-24T04:14:39.300Z,19.43
2022-12-24T04:17:06.269Z,13.30
2022-12-24T04:19:33.263Z,20.00
2022-12-24T04:22:00.034Z,17.70
2022-12-24T04:24:26.884Z,17.00
2022-12-24T04:26:53.715Z,18.43
2022-12-24T04:29:20.448Z,15.87
2022-12-24T04:31:47.320Z,15.73
2022-12-24T04:34:14.100Z,17.63
2022-12-24T04:36:40.837Z,18.57
2022-12-24T04:39:07.862Z,19.57
2022-12-24T04:41:34.708Z,15.80
2022-12-24T04:44:01.547Z,17.80
2022-12-24T04:46:33.626Z,20.20
2022-12-24T04:49:01.464Z,19.30
2022-12-24T04:51:29.222Z,13.37
2022-12-24T04:53:57.020Z,15.13
2022-12-24T04:56:26.763Z,20.17
2022-12-24T04:58:53.971Z,17.07
2022-12-24T05:01:27.520Z,16.70
2022-12-24T05:03:54.838Z,12.60
2022-12-24T05:06:28.967Z,18.37
2022-12-24T05:08:57.523Z,19.43
2022-12-24T05:11:24.792Z,17.43
2022-12-24T05:13:51.758Z,20.20
2022-12-24T05:16:20.611Z,20.07
2022-12-24T05:18:47.593Z,17.17
2022-12-24T05:21:17.993Z,16.50
2022-12-24T05:24:03.832Z,19.10
2022-12-24T05:27:05.116Z,13.63
2022-12-24T05:29:32.310Z,16.23
2022-12-24T05:31:59.016Z,17.10
2022-12-24T05:34:25.803Z,16.93
2022-12-24T05:36:52.798Z,17.63
2022-12-24T05:39:19.589Z,12.50
2022-12-24T05:41:47.780Z,18.27
2022-12-24T05:44:15.017Z,17.87
2022-12-24T05:46:42.077Z,15.53
2022-12-24T05:49:08.950Z,17.37
2022-12-24T05:51:35.754Z,13.90
2022-12-24T05:54:02.690Z,14.50
2022-12-24T05:56:29.420Z,13.23
2022-12-24T05:58:56.272Z,19.70
2022-12-24T06:01:23.937Z,26.13
2022-12-24T06:03:52.345Z,15.50
2022-12-24T06:06:22.308Z,15.07
2022-12-24T06:08:50.309Z,12.97
2022-12-24T06:11:19.368Z,19.80
2022-12-24T06:13:47.830Z,25.60
2022-12-24T06:16:17.570Z,18.73
2022-12-24T06:18:45.539Z,18.37
2022-12-24T06:21:13.183Z,12.13
2022-12-24T06:23:42.814Z,17.27
2022-12-24T06:26:13.502Z,18.93
2022-12-24T06:28:40.547Z,22.47
2022-12-24T06:31:14.825Z,17.57
2022-12-24T06:33:41.920Z,18.83
2022-12-24T06:36:23.640Z,16.37
2022-12-24T06:38:51.927Z,18.33
2022-12-24T06:41:20.090Z,20.97
2022-12-24T06:43:48.781Z,17.77
2022-12-24T06:46:16.899Z,14.60
2022-12-24T06:48:45.201Z,11.33
2022-12-24T06:51:13.523Z,16.97
2022-12-24T06:53:41.384Z,21.37
2022-12-24T06:56:11.003Z,18.80
2022-12-24T06:58:38.408Z,12.17
2022-12-24T07:01:07.971Z,16.90
2022-12-24T07:03:35.262Z,17.93
2022-12-24T07:06:02.893Z,17.67
2022-12-24T07:08:30.366Z,14.57
2022-12-24T07:10:59.943Z,17.27
2022-12-24T07:13:26.810Z,19.43
2022-12-24T07:16:02.446Z,15.77
2022-12-24T07:18:29.761Z,23.20
2022-12-24T07:20:56.979Z,19.23
2022-12-24T07:23:23.907Z,17.53
2022-12-24T07:25:51.122Z,21.97
2022-12-24T07:28:23.867Z,19.37
2022-12-24T07:30:52.986Z,19.73
2022-12-24T07:33:20.161Z,10.23
2022-12-24T07:35:52.180Z,17.50
2022-12-24T07:38:22.846Z,19.37
2022-12-24T07:40:49.549Z,15.83
2022-12-24T07:43:16.310Z,20.27
2022-12-24T07:45:44.183Z,23.03
2022-12-24T07:48:11.038Z,20.50
2022-12-24T07:50:37.759Z,18.57
2022-12-24T07:53:05.023Z,23.67
2022-12-24T07:55:31.766Z,17.73
2022-12-24T07:57:58.692Z,19.70
2022-12-24T08:00:25.445Z,21.23
2022-12-24T08:02:52.371Z,18.50
2022-12-24T08:05:19.203Z,27.63
2022-12-24T08:07:46.006Z,16.10
2022-12-24T08:10:12.857Z,19.90
2022-12-24T08:12:39.602Z,15.40
2022-12-24T08:15:06.952Z,16.77
2022-12-24T08:17:33.808Z,18.73
2022-12-24T08:20:00.542Z,21.03
2022-12-24T08:22:27.353Z,22.10
2022-12-24T08:24:54.155Z,16.27
2022-12-24T08:27:20.920Z,19.80
2022-12-24T08:29:47.622Z,20.87
2022-12-24T08:32:18.156Z,15.90
2022-12-24T08:34:50.369Z,15.33
2022-12-24T08:37:20.363Z,18.23
2022-12-24T08:39:47.246Z,18.83
2022-12-24T08:42:14.301Z,25.33
2022-12-24T08:44:41.260Z,17.83
2022-12-24T08:47:08.157Z,18.23
2022-12-24T08:49:35.019Z,20.00
2022-12-24T08:52:01.807Z,16.93
2022-12-24T08:54:28.694Z,17.93
2022-12-24T08:56:55.503Z,20.77
2022-12-24T08:59:22.685Z,24.43
2022-12-24T09:01:49.944Z,24.60
2022-12-24T09:04:16.863Z,13.43
2022-12-24T09:06:44.164Z,16.63
2022-12-24T09:09:11.003Z,20.70
2022-12-24T09:11:37.805Z,13.03
2022-12-24T09:14:04.673Z,16.33
2022-12-24T09:16:31.579Z,21.17
2022-12-24T09:18:59.143Z,16.50
2022-12-24T09:21:25.898Z,20.73
2022-12-24T09:23:52.641Z,15.80
2022-12-24T09:26:27.449Z,17.80
2022-12-24T09:28:54.434Z,15.13
2022-12-24T09:31:22.058Z,16.33
2022-12-24T09:33:50.141Z,17.93
2022-12-24T09:36:17.769Z,19.67
2022-12-24T09:38:45.377Z,18.10
2022-12-24T09:41:38.209Z,18.07
2022-12-24T09:44:42.039Z,15.90
2022-12-24T09:47:29.933Z,20.53
2022-12-24T09:49:59.387Z,16.73
2022-12-24T09:52:41.279Z,18.63
2022-12-24T09:55:19.817Z,12.60
2022-12-24T09:57:49.365Z,14.73
2022-12-24T10:00:32.006Z,14.00
2022-12-24T10:02:59.015Z,12.97
2022-12-24T10:05:40.980Z,17.60
2022-12-24T10:08:36.701Z,15.27
2022-12-24T10:11:30.199Z,20.23
2022-12-24T10:14:16.220Z,19.37
2022-12-24T10:17:06.734Z,17.90
2022-12-24T10:19:54.789Z,15.47
2022-12-24T10:22:52.005Z,16.67
2022-12-24T10:25:22.406Z,18.50
2022-12-24T10:27:49.489Z,17.40
2022-12-24T10:30:19.801Z,14.90
2022-12-24T10:32:54.796Z,19.17
2022-12-24T10:35:29.234Z,17.23
2022-12-24T10:37:58.221Z,16.07
2022-12-24T10:40:50.971Z,19.13
2022-12-24T10:43:23.174Z,14.90
2022-12-24T10:46:20.851Z,18.43
2022-12-24T10:49:02.320Z,19.27
2022-12-24T10:51:44.938Z,14.03
2022-12-24T10:54:27.699Z,16.13
2022-12-24T10:57:00.733Z,13.30
2022-12-24T10:59:39.157Z,16.03
2022-12-24T11:02:27.281Z,15.27
2022-12-24T11:04:54.467Z,16.53
2022-12-24T11:07:23.261Z,14.33
2022-12-24T11:10:05.651Z,18.70
2022-12-24T11:13:00.210Z,16.43
2022-12-24T11:15:34.884Z,14.00
2022-12-24T11:18:05.765Z,14.53
2022-12-24T11:20:34.860Z,10.30
2022-12-24T11:23:02.863Z,16.37
2022-12-24T11:25:32.819Z,14.17
2022-12-24T11:28:18.469Z,15.67
2022-12-24T11:31:00.501Z,20.00
2022-12-24T11:33:47.026Z,13.97
2022-12-24T11:36:14.285Z,16.23
2022-12-24T11:38:41.090Z,13.27
2022-12-24T11:41:12.446Z,16.50
2022-12-24T11:43:48.766Z,14.80
2022-12-24T11:46:39.056Z,13.07
2022-12-24T11:49:12.037Z,15.30
2022-12-24T11:52:11.025Z,15.53
2022-12-24T11:54:49.710Z,13.83
2022-12-24T11:57:20.155Z,16.67
2022-12-24T11:59:48.699Z,15.20
2022-12-24T12:02:40.035Z,18.00
2022-12-24T12:05:16.571Z,10.83
2022-12-24T12:07:47.135Z,14.53
2022-12-24T12:10:19.857Z,15.20
2022-12-24T12:13:01.550Z,15.43
2022-12-24T12:15:40.444Z,10.90
2022-12-24T12:18:20.600Z,19.27
2022-12-24T12:21:02.150Z,12.63
2022-12-24T12:23:33.724Z,14.50
2022-12-24T12:26:21.899Z,16.80
2022-12-24T12:29:07.305Z,13.93
2022-12-24T12:31:34.296Z,9.57
2022-12-24T12:34:26.936Z,12.30
2022-12-24T12:37:03.595Z,13.27
2022-12-24T12:39:31.824Z,15.07
2022-12-24T12:42:11.815Z,13.63
2022-12-24T12:45:00.311Z,19.47
2022-12-24T12:47:50.185Z,13.00
2022-12-24T12:50:19.759Z,18.33
2022-12-24T12:53:17.362Z,14.73
2022-12-24T12:55:57.878Z,13.60
2022-12-24T12:58:43.653Z,14.30
2022-12-24T13:01:33.115Z,14.13
2022-12-24T13:04:29.340Z,15.23
2022-12-24T13:07:21.235Z,13.33
2022-12-24T13:10:33.058Z,13.30
2022-12-24T13:13:48.923Z,13.90
2022-12-24T13:16:48.042Z,21.60
2022-12-24T13:19:36.106Z,16.27
2022-12-24T13:22:05.310Z,18.87
2022-12-24T13:24:33.267Z,19.33
2022-12-24T13:27:27.723Z,18.37
2022-12-24T13:30:37.409Z,13.73
2022-12-24T13:33:08.015Z,27.43
2022-12-24T13:35:38.262Z,16.93
2022-12-24T13:38:27.383Z,21.70
2022-12-24T13:40:55.469Z,15.40
2022-12-24T13:43:22.316Z,15.53
2022-12-24T13:45:51.835Z,16.47
2022-12-24T13:48:25.303Z,18.27
2022-12-24T13:50:57.925Z,21.53
2022-12-24T13:53:42.815Z,21.47
2022-12-24T13:56:12.337Z,17.03
2022-12-24T13:58:46.163Z,18.73
2022-12-24T14:01:21.479Z,21.97
2022-12-24T14:03:53.104Z,14.83
2022-12-24T14:06:49.781Z,19.53
2022-12-24T14:09:19.940Z,21.20
2022-12-24T14:11:59.293Z,19.50
2022-12-24T14:14:32.271Z,23.00
2022-12-24T14:17:01.768Z,15.97
2022-12-24T14:19:44.849Z,20.43
2022-12-24T14:22:28.848Z,19.30
2022-12-24T14:25:10.329Z,18.20
2022-12-24T14:27:46.267Z,17.93
2022-12-24T14:30:30.120Z,20.17
2022-12-24T14:32:57.285Z,17.80
2022-12-24T14:35:27.651Z,22.40
2022-12-24T14:38:12.957Z,23.17
2022-12-24T14:40:52.016Z,17.93
2022-12-24T14:43:35.649Z,26.00
2022-12-24T14:46:31.565Z,22.27
2022-12-24T14:49:11.230Z,21.13
2022-12-24T14:51:43.348Z,21.67
2022-12-24T14:54:25.180Z,19.63
2022-12-24T14:57:14.336Z,14.87
2022-12-24T14:59:54.526Z,22.40
2022-12-24T15:02:45.804Z,25.17
2022-12-24T15:05:28.864Z,22.57
2022-12-24T15:08:01.338Z,25.27
2022-12-24T15:10:40.868Z,16.50
2022-12-24T15:13:36.163Z,25.23
2022-12-24T15:16:12.488Z,17.47
2022-12-24T15:19:10.405Z,19.03
2022-12-24T15:21:42.703Z,22.40
2022-12-24T15:24:26.678Z,23.17
2022-12-24T15:26:54.130Z,23.57
2022-12-24T15:29:27.436Z,24.80
2022-12-24T15:31:59.780Z,17.93
2022-12-24T15:34:26.466Z,20.13
2022-12-24T15:36:53.258Z,22.00
2022-12-24T15:39:20.099Z,20.63
2022-12-24T15:42:11.483Z,17.70
2022-12-24T15:44:40.793Z,27.00
2022-12-24T15:47:14.491Z,24.83
2022-12-24T15:49:46.486Z,23.67
2022-12-24T15:52:17.008Z,25.67
2022-12-24T15:54:45.991Z,22.87
2022-12-24T15:57:32.063Z,24.73
2022-12-24T16:00:01.023Z,26.17
2022-12-24T16:02:42.025Z,20.80
2022-12-24T16:05:35.735Z,26.83
2022-12-24T16:08:14.373Z,22.17
2022-12-24T16:10:54.681Z,25.67
2022-12-24T16:13:34.992Z,28.47
2022-12-24T16:16:13.410Z,26.63
2022-12-24T16:18:53.649Z,21.03
2022-12-24T16:21:28.719Z,25.13
2022-12-24T16:23:58.686Z,21.40
2022-12-24T16:26:26.465Z,30.17
2022-12-24T16:28:57.142Z,21.23
2022-12-24T16:31:58.481Z,26.13
2022-12-24T16:34:30.569Z,28.90
2022-12-24T16:36:58.429Z,28.63
2022-12-24T16:39:30.884Z,23.47
2022-12-24T16:42:19.809Z,24.17
2022-12-24T16:44:47.251Z,25.30
2022-12-24T16:47:23.866Z,28.40
2022-12-24T16:49:51.041Z,24.23
2022-12-24T16:52:25.779Z,22.93
2022-12-24T16:54:52.725Z,26.40
2022-12-24T16:57:19.704Z,20.63
2022-12-24T16:59:46.754Z,32.57
2022-12-24T17:02:15.722Z,30.67
2022-12-24T17:04:42.894Z,36.33
2022-12-24T17:07:11.541Z,37.90
2022-12-24T17:09:38.369Z,34.67
2022-12-24T17:12:05.487Z,24.80
2022-12-24T17:14:32.228Z,28.20
2022-12-24T17:16:59.103Z,25.70
2022-12-24T17:19:25.889Z,25.17
2022-12-24T17:21:52.860Z,26.40
2022-12-24T17:24:19.573Z,28.23
2022-12-24T17:26:46.440Z,30.57
2022-12-24T17:29:13.261Z,23.47
2022-12-24T17:31:40.890Z,26.10
2022-12-24T17:34:07.813Z,28.30
2022-12-24T17:36:34.656Z,25.00
2022-12-24T17:39:01.476Z,22.67
2022-12-24T17:41:28.406Z,34.47
2022-12-24T17:43:55.221Z,25.67
2022-12-24T17:46:23.570Z,27.63
2022-12-24T17:48:51.600Z,27.67
2022-12-24T17:51:21.097Z,22.70
2022-12-24T17:53:48.636Z,26.63
2022-12-24T17:56:15.865Z,23.37
2022-12-24T17:58:44.322Z,22.73
2022-12-24T18:01:17.509Z,26.93
2022-12-24T18:03:45.323Z,23.90
2022-12-24T18:06:13.308Z,22.77
2022-12-24T18:08:41.408Z,26.83
2022-12-24T18:11:19.321Z,25.87
2022-12-24T18:13:46.682Z,24.40
2022-12-24T18:16:21.754Z,20.27
2022-12-24T18:18:49.838Z,22.90
2022-12-24T18:21:19.253Z,23.27
2022-12-24T18:23:47.825Z,25.40
2022-12-24T18:26:16.391Z,24.03
2022-12-24T18:28:44.096Z,28.87
2022-12-24T18:31:17.334Z,19.93
2022-12-24T18:33:45.529Z,20.60
2022-12-24T18:36:12.834Z,20.13
2022-12-24T18:38:40.717Z,19.33
2022-12-24T18:41:19.910Z,25.13
2022-12-24T18:43:47.133Z,21.23
2022-12-24T18:46:23.973Z,20.87
2022-12-24T18:48:51.897Z,21.23
2022-12-24T18:51:22.220Z,19.13
2022-12-24T18:53:49.501Z,23.57
2022-12-24T18:56:21.447Z,24.43
2022-12-24T18:58:48.929Z,18.83
2022-12-24T19:01:30.761Z,23.07
2022-12-24T19:03:58.448Z,19.67
2022-12-24T19:06:26.066Z,20.17
2022-12-24T19:08:59.143Z,17.00
2022-12-24T19:11:29.261Z,23.73
2022-12-24T19:13:57.935Z,21.63
2022-12-24T19:16:25.428Z,22.30
2022-12-24T19:18:52.279Z,27.07
2022-12-24T19:21:19.135Z,19.20
2022-12-24T19:23:47.038Z,20.10
2022-12-24T19:26:15.775Z,17.37
2022-12-24T19:28:43.031Z,23.57
2022-12-24T19:31:15.539Z,21.00
2022-12-24T19:33:47.778Z,19.50
2022-12-24T19:36:17.774Z,21.70
2022-12-24T19:38:45.404Z,22.53
2022-12-24T19:41:17.407Z,21.07
2022-12-24T19:43:46.551Z,23.73
2022-12-24T19:46:16.065Z,27.50
2022-12-24T19:48:43.964Z,19.10
2022-12-24T19:51:12.331Z,20.93
2022-12-24T19:53:40.024Z,17.63
2022-12-24T19:56:08.631Z,18.67
2022-12-24T19:58:35.680Z,20.27
2022-12-24T20:01:14.458Z,17.73
2022-12-24T20:03:42.446Z,20.13
2022-12-24T20:06:09.544Z,15.67
2022-12-24T20:08:37.586Z,17.27
2022-12-24T20:11:06.535Z,17.53
2022-12-24T20:13:35.047Z,14.57
2022-12-24T20:16:12.202Z,17.20
2022-12-24T20:18:40.095Z,16.40
2022-12-24T20:21:09.240Z,14.60
2022-12-24T20:23:38.949Z,14.90
2022-12-24T20:26:06.942Z,15.37
2022-12-24T20:28:35.661Z,20.77
2022-12-24T20:31:14.584Z,16.87
2022-12-24T20:33:43.113Z,11.80
2022-12-24T20:36:10.950Z,11.57
2022-12-24T20:38:39.449Z,15.27
2022-12-24T20:41:07.286Z,11.87
2022-12-24T20:43:39.702Z,12.90
2022-12-24T20:46:10.667Z,15.90
2022-12-24T20:48:38.614Z,11.67
2022-12-24T20:51:07.181Z,11.07
2022-12-24T20:53:34.112Z,15.13
2022-12-24T20:56:01.152Z,13.27
2022-12-24T20:58:28.232Z,12.53
2022-12-24T21:00:54.994Z,11.90
2022-12-24T21:03:21.833Z,14.13
2022-12-24T21:05:48.729Z,12.07
2022-12-24T21:08:15.867Z,11.03
2022-12-24T21:10:42.715Z,11.40
2022-12-24T21:13:09.551Z,13.07
2022-12-24T21:15:41.254Z,9.47
2022-12-24T21:18:11.974Z,11.27
2022-12-24T21:20:40.630Z,12.50
2022-12-24T21:23:07.902Z,11.37
2022-12-24T21:25:35.716Z,8.23
2022-12-24T21:28:02.812Z,11.27
2022-12-24T21:30:30.827Z,16.97
2022-12-24T21:32:57.543Z,10.23
2022-12-24T21:35:24.307Z,12.13
2022-12-24T21:37:51.357Z,16.70
2022-12-24T21:40:18.500Z,14.33
2022-12-24T21:42:45.384Z,12.27
2022-12-24T21:45:12.425Z,9.50
2022-12-24T21:47:44.711Z,10.37
2022-12-24T21:50:32.253Z,10.83
2022-12-24T21:53:18.897Z,11.23
2022-12-24T21:55:45.850Z,8.70
2022-12-24T21:58:12.799Z,12.03
2022-12-24T22:00:39.819Z,10.13
2022-12-24T22:03:07.011Z,6.23
2022-12-24T22:05:35.248Z,8.83
2022-12-24T22:08:21.162Z,8.17
2022-12-24T22:11:06.509Z,13.53
2022-12-24T22:13:33.406Z,11.87
2022-12-24T22:16:00.317Z,8.17
2022-12-24T22:18:27.191Z,9.87
2022-12-24T22:20:55.794Z,8.93
2022-12-24T22:23:23.741Z,7.60
2022-12-24T22:25:50.536Z,10.57
2022-12-24T22:28:17.366Z,11.93
2022-12-24T22:30:44.224Z,8.93
2022-12-24T22:33:11.397Z,7.80
2022-12-24T22:35:41.442Z,5.90
2022-12-24T22:38:09.979Z,8.27
2022-12-24T22:40:40.033Z,12.10
2022-12-24T22:43:06.791Z,15.07
2022-12-24T22:45:33.620Z,7.03
2022-12-24T22:48:00.364Z,8.17
2022-12-24T22:50:27.169Z,7.53
2022-12-24T22:52:53.984Z,8.63
2022-12-24T22:55:21.486Z,10.50
2022-12-24T22:57:48.565Z,9.57
2022-12-24T23:00:41.268Z,7.07
2022-12-24T23:03:09.036Z,6.33
2022-12-24T23:05:36.459Z,9.63
2022-12-24T23:08:05.558Z,7.13
2022-12-24T23:10:32.537Z,3.17
2022-12-24T23:13:18.115Z,8.63
2022-12-24T23:15:45.206Z,6.93
2022-12-24T23:18:12.137Z,12.30
2022-12-24T23:20:42.227Z,12.60
2022-12-24T23:23:09.161Z,6.73
2022-12-24T23:25:35.883Z,6.13
2022-12-24T23:28:02.933Z,7.80
2022-12-24T23:30:30.128Z,9.57
2022-12-24T23:32:57.395Z,7.67
2022-12-24T23:35:24.491Z,6.83
2022-12-24T23:37:51.704Z,11.10
2022-12-24T23:40:18.636Z,6.23
2022-12-24T23:42:45.448Z,7.73
2022-12-24T23:45:12.342Z,6.47
2022-12-24T23:47:39.186Z,5.33
2022-12-24T23:50:06.660Z,8.77
2022-12-24T23:52:33.963Z,7.53
2022-12-24T23:55:00.669Z,7.97
2022-12-24T23:57:27.439Z,6.73
2022-12-24T23:59:54.172Z,8.17
